Time;durP1;ratioP1;P1;durP2;ratioP2;P2;SDS_P1;SDS_P2;PMS_P1;PMS_P2;Temp;Humidity;BMP_temperature;BMP_pressure;BME280_temperature;BME280_humidity;BME280_pressure;Samples;Min_cycle;Max_cycle;Signal;HPM_P1;HPM_P2
2022/06/07 00:02:25;;;;;;;1.35;0.30;;;13.40;99.90;;;;;;5071621;28;20089;-75
2022/06/07 00:04:53;;;;;;;1.90;0.73;;;13.50;99.90;;;;;;5071733;28;20020;-75
2022/06/07 00:07:23;;;;;;;1.00;0.40;;;13.50;99.90;;;;;;5072821;28;20020;-76
2022/06/07 00:09:50;;;;;;;1.38;0.40;;;13.60;99.90;;;;;;5071548;28;20024;-75
2022/06/07 00:12:18;;;;;;;2.28;0.60;;;13.60;99.90;;;;;;5072968;28;20035;-76
2022/06/07 00:14:46;;;;;;;1.13;0.47;;;13.70;99.90;;;;;;5071437;28;20497;-76
2022/06/07 00:17:14;;;;;;;1.77;0.40;;;13.70;99.90;;;;;;5073011;28;20036;-75
2022/06/07 00:19:42;;;;;;;2.40;0.40;;;13.80;99.90;;;;;;5072950;28;20020;-75
2022/06/07 00:22:10;;;;;;;1.15;0.38;;;13.90;99.90;;;;;;5072958;28;20024;-74
2022/06/07 00:24:38;;;;;;;2.22;0.45;;;13.90;99.90;;;;;;5072721;28;20052;-74
2022/06/07 00:27:06;;;;;;;1.02;0.30;;;13.90;99.90;;;;;;5071525;28;20032;-74
2022/06/07 00:29:34;;;;;;;4.97;0.55;;;13.90;99.90;;;;;;5071568;28;20020;-74
2022/06/07 00:32:02;;;;;;;1.70;0.40;;;14.00;99.90;;;;;;5071693;28;20048;-74
2022/06/07 00:34:33;;;;;;;1.30;0.30;;;14.00;99.90;;;;;;5073176;28;20075;-74
2022/06/07 00:37:00;;;;;;;2.03;0.30;;;14.10;99.90;;;;;;5072906;28;20067;-74
2022/06/07 00:39:28;;;;;;;2.03;0.40;;;14.20;99.90;;;;;;5071882;28;20021;-74
2022/06/07 00:41:55;;;;;;;1.60;0.40;;;14.30;99.90;;;;;;5072808;28;20020;-74
2022/06/07 00:44:25;;;;;;;3.25;0.40;;;14.40;99.90;;;;;;5071392;28;20052;-74
2022/06/07 00:47:11;;;;;;;3.33;0.30;;;14.50;99.90;;;;;;5072508;28;20461;-73
2022/06/07 00:49:53;;;;;;;1.23;0.40;;;14.60;99.90;;;;;;5071510;28;20029;-74
2022/06/07 00:52:23;;;;;;;1.40;0.40;;;14.70;99.90;;;;;;5072372;28;20104;-74
2022/06/07 00:54:50;;;;;;;0.82;0.20;;;14.90;99.90;;;;;;5072150;28;20023;-74
2022/06/07 00:57:18;;;;;;;0.88;0.28;;;15.00;99.90;;;;;;5072870;28;20023;-75
2022/06/07 00:59:46;;;;;;;1.20;0.30;;;15.00;99.90;;;;;;5072564;28;20379;-74
2022/06/07 01:02:13;;;;;;;1.60;0.20;;;15.10;99.90;;;;;;5071429;28;20021;-75
2022/06/07 01:04:41;;;;;;;1.13;0.22;;;15.10;99.90;;;;;;5072355;28;20073;-74
2022/06/07 01:12:39;;;;;;;2.03;0.57;;;15.10;99.90;;;;;;5072571;28;20529;-74
2022/06/07 01:15:08;;;;;;;1.67;0.40;;;15.20;99.90;;;;;;5071214;28;20025;-74
2022/06/07 01:17:35;;;;;;;0.50;0.20;;;15.30;99.90;;;;;;5072693;28;20017;-74
2022/06/07 01:20:04;;;;;;;1.58;0.38;;;15.30;99.90;;;;;;5072414;28;20108;-75
2022/06/07 01:22:31;;;;;;;1.17;0.30;;;15.50;99.90;;;;;;5071382;28;20437;-74
2022/06/07 01:24:59;;;;;;;1.17;0.20;;;15.40;99.90;;;;;;5071267;28;20479;-74
2022/06/07 01:27:26;;;;;;;3.10;0.47;;;15.20;99.90;;;;;;5071424;28;20518;-74
2022/06/07 01:29:54;;;;;;;1.30;0.30;;;15.20;99.90;;;;;;5072564;28;20111;-74
2022/06/07 01:32:21;;;;;;;1.25;0.32;;;15.20;99.90;;;;;;5072508;28;20106;-74
2022/06/07 01:34:49;;;;;;;0.90;0.20;;;15.30;99.90;;;;;;5072607;28;20021;-75
2022/06/07 01:37:18;;;;;;;1.95;0.30;;;15.40;99.90;;;;;;5075117;28;20028;-74
2022/06/07 01:42:33;;;;;;;1.85;0.57;;;15.40;99.90;;;;;;5064704;28;20048;-75
2022/06/07 01:45:01;;;;;;;2.00;0.50;;;15.50;99.90;;;;;;5075897;28;20103;-75
2022/06/07 01:47:31;;;;;;;0.52;0.20;;;15.60;99.90;;;;;;5075744;28;20029;-75
2022/06/07 01:49:59;;;;;;;1.65;0.35;;;15.60;99.90;;;;;;5074430;28;20055;-76
2022/06/07 01:52:29;;;;;;;0.90;0.20;;;15.60;99.90;;;;;;5075531;28;20032;-76
2022/06/07 01:54:56;;;;;;;0.50;0.20;;;15.60;99.90;;;;;;5075467;28;20194;-76
2022/06/07 01:57:24;;;;;;;0.82;0.22;;;15.50;99.90;;;;;;5075665;28;20047;-75
2022/06/07 01:59:54;;;;;;;1.98;0.40;;;15.70;99.90;;;;;;5075464;28;20016;-75
2022/06/07 02:02:25;;;;;;;2.95;0.10;;;16.00;99.90;;;;;;5075566;28;20024;-75
2022/06/07 02:04:52;;;;;;;1.35;0.13;;;16.00;99.90;;;;;;5076014;28;20028;-75
2022/06/07 02:07:20;;;;;;;0.90;0.10;;;15.90;99.90;;;;;;5074186;28;20496;-75
2022/06/07 02:09:48;;;;;;;0.52;0.20;;;16.00;99.90;;;;;;5075350;28;20477;-75
2022/06/07 02:12:15;;;;;;;0.28;0.10;;;15.80;99.90;;;;;;5075263;28;20113;-75
2022/06/07 02:14:43;;;;;;;1.55;0.40;;;15.70;99.90;;;;;;5075221;28;20069;-74
2022/06/07 02:17:10;;;;;;;1.65;0.20;;;15.80;99.90;;;;;;5073944;28;20017;-74
2022/06/07 02:19:38;;;;;;;1.35;0.10;;;15.80;99.90;;;;;;5073981;28;20027;-74
2022/06/07 02:22:05;;;;;;;0.40;0.30;;;15.90;99.90;;;;;;5073835;28;20032;-75
2022/06/07 02:24:33;;;;;;;0.82;0.38;;;15.70;99.90;;;;;;5075118;28;20027;-75
2022/06/07 02:27:16;;;;;;;0.35;0.20;;;15.70;99.90;;;;;;5073785;28;20024;-74
2022/06/07 02:29:47;;;;;;;0.68;0.17;;;15.60;99.90;;;;;;5073786;28;20020;-75
2022/06/07 02:32:33;;;;;;;;;;;15.30;99.90;;;;;;5073731;28;20048;-74
2022/06/07 02:35:03;;;;;;;0.30;0.13;;;15.20;99.90;;;;;;5073745;28;19911;-74
2022/06/07 02:37:31;;;;;;;;;;;15.30;99.90;;;;;;5074031;28;20070;-74
2022/06/07 02:39:59;;;;;;;1.25;0.20;;;15.20;99.90;;;;;;5075008;28;20260;-74
2022/06/07 02:42:28;;;;;;;0.70;0.30;;;15.40;99.90;;;;;;5074707;28;20020;-74
2022/06/07 02:44:57;;;;;;;1.10;0.20;;;15.50;99.90;;;;;;5074784;28;20016;-74
2022/06/07 02:47:25;;;;;;;2.50;0.30;;;15.60;99.90;;;;;;5074415;28;20107;-74
2022/06/07 02:49:53;;;;;;;0.90;0.20;;;15.60;99.90;;;;;;5073372;28;20029;-75
2022/06/07 02:52:21;;;;;;;0.57;0.30;;;15.90;99.90;;;;;;5073100;28;20021;-75
2022/06/07 02:54:48;;;;;;;0.30;0.20;;;16.00;99.90;;;;;;5074717;28;20054;-75
2022/06/07 02:57:15;;;;;;;2.17;0.10;;;16.10;99.90;;;;;;5074598;28;20146;-75
2022/06/07 02:59:43;;;;;;;0.50;0.20;;;16.20;99.90;;;;;;5074428;28;20031;-75
2022/06/07 03:02:10;;;;;;;0.85;0.20;;;16.40;99.90;;;;;;5074328;28;20469;-76
2022/06/07 03:04:38;;;;;;;0.68;0.30;;;16.50;99.90;;;;;;5074393;28;20021;-76
2022/06/07 03:07:05;;;;;;;0.32;0.15;;;16.70;99.90;;;;;;5074276;28;20070;-75
2022/06/07 03:09:33;;;;;;;2.28;0.10;;;16.40;99.90;;;;;;5074217;28;20099;-73
2022/06/07 03:12:00;;;;;;;0.73;0.20;;;16.40;99.90;;;;;;5074102;28;20030;-74
2022/06/07 03:14:28;;;;;;;1.17;0.10;;;16.40;99.90;;;;;;5074000;28;20024;-74
2022/06/07 03:16:55;;;;;;;0.20;0.10;;;16.40;99.90;;;;;;5074357;28;20630;-75
2022/06/07 03:19:23;;;;;;;0.77;0.25;;;16.50;99.90;;;;;;5072759;28;20016;-75
2022/06/07 03:21:50;;;;;;;0.82;0.20;;;16.50;99.90;;;;;;5073940;28;20495;-76
2022/06/07 03:24:17;;;;;;;0.68;0.20;;;16.50;99.80;;;;;;5074161;28;20028;-74
2022/06/07 03:26:45;;;;;;;0.73;0.20;;;16.50;99.90;;;;;;5073820;28;20028;-75
2022/06/07 03:29:12;;;;;;;0.65;0.00;;;16.50;99.60;;;;;;5073738;28;20025;-76
2022/06/07 03:31:39;;;;;;;1.70;0.10;;;16.40;98.80;;;;;;5072334;28;20048;-75
2022/06/07 03:34:07;;;;;;;2.40;0.22;;;16.20;99.00;;;;;;5072178;28;20028;-75
2022/06/07 03:36:35;;;;;;;1.38;0.25;;;16.20;99.90;;;;;;5072353;28;20108;-75
2022/06/07 03:39:07;;;;;;;1.20;0.17;;;16.20;98.90;;;;;;5072634;28;20020;-75
2022/06/07 03:41:34;;;;;;;0.40;0.20;;;16.20;99.00;;;;;;5073486;28;20055;-74
2022/06/07 03:44:03;;;;;;;0.35;0.10;;;16.30;99.90;;;;;;5073390;28;20491;-74
2022/06/07 03:46:35;;;;;;;1.15;0.30;;;16.40;99.50;;;;;;5072227;28;20036;-75
2022/06/07 03:49:04;;;;;;;0.20;0.10;;;16.40;99.90;;;;;;5073416;28;20082;-75
2022/06/07 03:51:32;;;;;;;0.35;0.20;;;16.40;99.80;;;;;;5073481;28;20026;-74
2022/06/07 03:53:59;;;;;;;0.98;0.10;;;16.60;99.90;;;;;;5073212;28;20103;-74
2022/06/07 03:56:27;;;;;;;1.27;0.20;;;16.40;99.70;;;;;;5073274;28;20017;-75
2022/06/07 03:58:55;;;;;;;1.13;0.13;;;16.30;99.90;;;;;;5072517;28;20384;-74
2022/06/07 04:01:24;;;;;;;4.15;0.43;;;16.30;99.90;;;;;;5073250;28;20017;-74
2022/06/07 04:03:54;;;;;;;1.15;0.30;;;16.30;99.90;;;;;;5073111;28;20074;-74
2022/06/07 04:06:34;;;;;;;1.30;0.20;;;16.30;99.90;;;;;;5073224;28;20021;-75
2022/06/07 04:09:01;;;;;;;1.05;0.25;;;16.40;99.90;;;;;;5071786;28;20028;-75
2022/06/07 04:11:29;;;;;;;0.68;0.10;;;16.30;99.90;;;;;;5073092;28;20028;-74
2022/06/07 04:13:58;;;;;;;1.17;0.30;;;16.20;99.90;;;;;;5072962;28;20070;-75
2022/06/07 04:16:29;;;;;;;0.95;0.10;;;16.20;99.90;;;;;;5073181;28;20012;-75
2022/06/07 04:18:56;;;;;;;0.25;0.20;;;16.10;99.90;;;;;;5072938;28;20021;-74
2022/06/07 04:21:24;;;;;;;0.28;0.10;;;16.00;99.90;;;;;;5071648;28;20036;-74
2022/06/07 04:23:53;;;;;;;0.73;0.17;;;15.90;99.90;;;;;;5072797;28;20036;-73
2022/06/07 04:26:26;;;;;;;0.90;0.10;;;15.80;99.90;;;;;;5072847;28;20107;-75
2022/06/07 04:28:54;;;;;;;1.75;0.20;;;15.90;99.90;;;;;;5072938;28;20039;-75
2022/06/07 04:31:23;;;;;;;0.30;0.10;;;15.80;99.90;;;;;;5072643;28;20365;-75
2022/06/07 04:33:51;;;;;;;1.37;0.30;;;15.80;99.90;;;;;;5073091;28;20021;-76
2022/06/07 04:36:23;;;;;;;0.30;0.00;;;15.70;99.90;;;;;;5072926;28;20106;-75
2022/06/07 04:38:53;;;;;;;0.40;0.10;;;15.70;99.90;;;;;;5072955;28;20099;-75
2022/06/07 04:41:22;;;;;;;0.45;0.20;;;15.60;99.90;;;;;;5072681;28;20043;-75
2022/06/07 04:43:51;;;;;;;0.70;0.20;;;15.60;99.90;;;;;;5072927;28;20024;-75
2022/06/07 04:46:19;;;;;;;0.65;0.10;;;15.60;99.90;;;;;;5072820;28;20029;-76
2022/06/07 04:48:48;;;;;;;0.70;0.30;;;15.60;99.90;;;;;;5072694;28;20021;-75
2022/06/07 04:51:19;;;;;;;3.83;0.30;;;15.60;99.90;;;;;;5071247;28;20040;-76
2022/06/07 04:53:48;;;;;;;0.35;0.10;;;15.60;99.90;;;;;;5071273;28;20025;-75
2022/06/07 04:56:18;;;;;;;2.58;0.32;;;15.60;99.90;;;;;;5071267;28;20120;-75
2022/06/07 04:58:45;;;;;;;0.60;0.25;;;15.70;99.90;;;;;;5071844;28;20116;-76
2022/06/07 05:01:19;;;;;;;0.30;0.10;;;15.60;99.90;;;;;;5071245;28;20476;-75
2022/06/07 05:03:48;;;;;;;0.38;0.20;;;15.50;99.90;;;;;;5072724;28;20028;-76
2022/06/07 05:06:31;;;;;;;0.20;0.10;;;15.40;99.90;;;;;;5072408;28;20028;-75
2022/06/07 05:08:59;;;;;;;2.28;0.20;;;;;;;;;;5072709;28;20104;-75
2022/06/07 05:11:28;;;;;;;0.60;0.15;;;15.30;99.90;;;;;;5075066;28;20047;-76
2022/06/07 05:13:57;;;;;;;0.95;0.10;;;15.30;99.90;;;;;;5076377;28;20067;-75
2022/06/07 05:16:25;;;;;;;0.45;0.10;;;15.30;99.90;;;;;;5076203;28;20021;-75
2022/06/07 05:18:54;;;;;;;0.40;0.10;;;15.30;99.90;;;;;;5076275;28;20017;-75
2022/06/07 05:21:23;;;;;;;1.70;0.10;;;15.30;99.90;;;;;;5076159;28;20062;-75
2022/06/07 05:23:51;;;;;;;0.60;0.40;;;15.20;99.90;;;;;;5074855;28;20035;-75
2022/06/07 05:26:38;;;;;;;0.63;0.50;;;15.20;99.90;;;;;;5076050;28;20454;-75
2022/06/07 05:29:25;;;;;;;1.25;0.20;;;15.20;99.90;;;;;;5076172;28;20103;-74
2022/06/07 05:31:53;;;;;;;0.65;0.15;;;15.20;99.90;;;;;;5075848;28;20044;-75
2022/06/07 05:34:20;;;;;;;2.15;0.20;;;15.10;99.90;;;;;;5076086;28;20028;-75
2022/06/07 05:36:48;;;;;;;1.33;0.20;;;15.10;99.90;;;;;;5074531;28;20025;-75
2022/06/07 05:39:28;;;;;;;1.30;0.20;;;15.10;99.90;;;;;;5075996;28;20017;-76
2022/06/07 05:41:56;;;;;;;1.33;0.10;;;15.00;99.90;;;;;;5074532;28;20016;-74
2022/06/07 05:44:25;;;;;;;2.03;0.40;;;14.90;99.90;;;;;;5075777;28;20035;-74
2022/06/07 05:46:53;;;;;;;2.10;0.60;;;14.90;99.90;;;;;;5075696;28;20388;-76
2022/06/07 05:49:21;;;;;;;2.45;0.30;;;14.80;99.90;;;;;;5075921;28;20154;-76
2022/06/07 05:51:48;;;;;;;2.45;0.30;;;14.80;99.90;;;;;;5075722;28;20431;-76
2022/06/07 05:54:16;;;;;;;0.47;0.10;;;14.80;99.90;;;;;;5075839;28;20020;-76
2022/06/07 05:56:43;;;;;;;0.32;0.20;;;14.70;99.90;;;;;;5075560;28;20106;-75
2022/06/07 05:59:11;;;;;;;1.45;0.25;;;14.70;99.90;;;;;;5075767;28;20100;-75
2022/06/07 06:01:38;;;;;;;2.70;0.25;;;14.60;99.90;;;;;;5075502;28;20048;-75
2022/06/07 06:04:07;;;;;;;1.10;0.30;;;14.50;99.90;;;;;;5075322;28;20050;-74
2022/06/07 06:06:37;;;;;;;0.65;0.20;;;14.50;99.90;;;;;;5075280;28;20040;-75
2022/06/07 06:11:51;;;;;;;0.43;0.30;;;14.40;99.90;;;;;;5075655;28;20035;-75
2022/06/07 06:14:22;;;;;;;0.40;0.20;;;14.30;99.90;;;;;;5073676;28;20021;-74
2022/06/07 06:16:52;;;;;;;0.38;0.22;;;14.20;99.90;;;;;;5075318;28;20032;-74
2022/06/07 06:19:20;;;;;;;0.77;0.30;;;14.10;99.90;;;;;;5073835;28;20028;-74
2022/06/07 06:21:48;;;;;;;0.70;0.30;;;14.00;99.90;;;;;;5074416;28;20095;-75
2022/06/07 06:24:17;;;;;;;0.45;0.20;;;13.90;99.90;;;;;;5074982;28;20074;-74
2022/06/07 06:26:44;;;;;;;2.60;0.30;;;13.90;99.90;;;;;;5075308;28;20029;-76
2022/06/07 06:29:12;;;;;;;1.40;0.22;;;13.70;99.90;;;;;;5075419;28;20032;-75
2022/06/07 06:31:41;;;;;;;0.60;0.35;;;13.70;99.90;;;;;;5073637;28;20458;-75
2022/06/07 06:34:09;;;;;;;2.35;0.28;;;13.60;99.90;;;;;;5073400;28;20032;-74
2022/06/07 06:36:39;;;;;;;0.28;0.20;;;13.50;99.90;;;;;;5074822;28;20016;-73
2022/06/07 06:39:06;;;;;;;1.95;0.30;;;13.40;99.90;;;;;;5074741;28;20017;-74
2022/06/07 06:41:34;;;;;;;0.95;0.20;;;13.40;99.90;;;;;;5074593;28;20021;-73
2022/06/07 06:44:03;;;;;;;0.77;0.30;;;13.40;99.90;;;;;;5074293;28;20494;-74
2022/06/07 06:46:42;;;;;;;0.70;0.30;;;13.30;99.90;;;;;;5074504;28;20028;-74
2022/06/07 06:49:11;;;;;;;0.95;0.30;;;13.30;99.90;;;;;;5074647;28;20031;-74
2022/06/07 06:51:39;;;;;;;1.15;0.40;;;13.20;99.90;;;;;;5074509;28;20472;-74
2022/06/07 06:54:06;;;;;;;0.40;0.20;;;13.10;99.90;;;;;;5072836;28;20051;-73
2022/06/07 06:56:34;;;;;;;0.50;0.20;;;13.10;99.90;;;;;;5074698;28;20474;-73
2022/06/07 06:59:01;;;;;;;0.57;0.30;;;13.10;99.90;;;;;;5072502;28;20028;-73
2022/06/07 07:01:32;;;;;;;1.27;0.30;;;13.10;99.90;;;;;;5072555;28;20044;-73
2022/06/07 07:04:01;;;;;;;1.05;0.40;;;13.10;99.90;;;;;;5074161;28;20075;-73
2022/06/07 07:06:29;;;;;;;0.80;0.30;;;13.00;99.90;;;;;;5074071;28;20074;-73
2022/06/07 07:08:57;;;;;;;1.77;0.60;;;13.00;99.90;;;;;;5074014;28;20048;-73
2022/06/07 07:11:32;;;;;;;1.50;0.45;;;13.00;99.90;;;;;;5073921;28;20078;-73
2022/06/07 07:14:00;;;;;;;1.77;0.30;;;13.00;99.90;;;;;;5073935;28;20032;-73
2022/06/07 07:16:30;;;;;;;2.17;0.30;;;12.90;99.90;;;;;;5073633;28;20024;-73
2022/06/07 07:18:58;;;;;;;0.40;0.25;;;12.90;99.90;;;;;;5073916;28;20071;-74
2022/06/07 07:21:33;;;;;;;1.17;0.40;;;12.90;99.90;;;;;;5073799;28;20028;-74
2022/06/07 07:24:02;;;;;;;2.78;0.30;;;12.90;99.90;;;;;;5073751;28;20473;-75
2022/06/07 07:26:31;;;;;;;0.90;0.40;;;12.90;99.90;;;;;;5073936;28;20082;-75
2022/06/07 07:28:59;;;;;;;2.40;0.60;;;12.80;99.90;;;;;;5072449;28;20021;-75
2022/06/07 07:31:33;;;;;;;1.77;0.60;;;12.80;99.90;;;;;;5073278;28;20067;-75
2022/06/07 07:34:03;;;;;;;1.15;0.40;;;12.80;99.90;;;;;;5072774;28;20037;-75
2022/06/07 07:36:31;;;;;;;0.85;0.30;;;12.70;99.90;;;;;;5073907;28;20012;-75
2022/06/07 07:38:59;;;;;;;2.78;0.60;;;12.70;99.90;;;;;;5072170;28;20032;-75
2022/06/07 07:41:29;;;;;;;2.92;0.70;;;12.70;99.90;;;;;;5073365;28;20158;-75
2022/06/07 07:43:58;;;;;;;0.70;0.47;;;12.80;99.90;;;;;;5073359;28;20029;-73
2022/06/07 07:46:29;;;;;;;2.25;0.68;;;12.80;99.90;;;;;;5071944;28;20032;-74
2022/06/07 07:48:57;;;;;;;1.13;0.50;;;12.80;99.90;;;;;;5071812;28;20020;-73
2022/06/07 07:51:37;;;;;;;0.98;0.50;;;12.80;99.90;;;;;;5071863;28;20036;-73
2022/06/07 07:54:07;;;;;;;2.22;0.60;;;12.80;99.90;;;;;;5071872;28;20033;-74
2022/06/07 07:56:35;;;;;;;2.28;0.90;;;12.80;99.90;;;;;;5073295;28;20070;-73
2022/06/07 07:59:04;;;;;;;3.00;0.90;;;12.80;99.90;;;;;;5071869;28;20021;-73
2022/06/07 08:01:32;;;;;;;1.65;0.50;;;12.80;99.90;;;;;;5071751;28;20033;-73
2022/06/07 08:04:02;;;;;;;1.90;0.47;;;12.80;99.90;;;;;;5071740;28;20025;-73
2022/06/07 08:06:30;;;;;;;1.60;0.60;;;12.90;99.90;;;;;;5073078;28;20021;-74
2022/06/07 08:09:00;;;;;;;1.48;0.50;;;12.80;99.90;;;;;;5071628;28;20028;-73
2022/06/07 08:11:32;;;;;;;1.35;0.60;;;12.90;99.90;;;;;;5071811;28;20020;-72
2022/06/07 08:14:01;;;;;;;0.75;0.70;;;12.90;99.90;;;;;;5072895;28;20033;-72
2022/06/07 08:16:29;;;;;;;0.98;0.40;;;12.90;99.90;;;;;;5073023;28;20099;-72
2022/06/07 08:18:57;;;;;;;1.98;0.40;;;12.90;99.90;;;;;;5073013;28;20032;-73
2022/06/07 08:21:27;;;;;;;2.28;0.40;;;12.90;99.90;;;;;;5072884;28;20116;-71
2022/06/07 08:23:56;;;;;;;0.65;0.50;;;12.90;99.90;;;;;;5073114;28;20032;-71
2022/06/07 08:26:26;;;;;;;0.63;0.28;;;12.80;99.90;;;;;;5071490;28;20041;-71
2022/06/07 08:28:55;;;;;;;1.40;0.45;;;12.80;99.90;;;;;;5072904;28;20020;-71
2022/06/07 08:31:26;;;;;;;1.85;0.57;;;12.70;99.90;;;;;;5072611;28;20020;-71
2022/06/07 08:39:27;;;;;;;2.58;0.40;;;12.60;99.90;;;;;;5073240;28;20036;-72
2022/06/07 08:42:00;;;;;;;2.33;0.57;;;12.50;99.90;;;;;;5071316;28;20024;-72
2022/06/07 08:44:41;;;;;;;0.52;0.40;;;12.40;99.90;;;;;;5072525;28;20025;-72
2022/06/07 08:47:16;;;;;;;;;;;12.30;99.90;;;;;;5073229;28;20020;-72
2022/06/07 08:49:44;;;;;;;1.60;0.57;;;12.30;99.90;;;;;;5071405;28;19954;-72
2022/06/07 08:52:17;;;;;;;1.20;0.40;;;12.20;99.90;;;;;;5072637;28;20512;-73
2022/06/07 08:54:45;;;;;;;0.55;0.25;;;12.20;99.90;;;;;;5071363;28;20031;-72
2022/06/07 08:57:24;;;;;;;0.98;0.30;;;12.10;99.90;;;;;;5071259;28;20074;-72
2022/06/07 08:59:59;;;;;;;1.63;0.28;;;12.00;99.90;;;;;;5072627;28;20028;-72
2022/06/07 09:02:55;;;;;;;0.50;0.30;;;11.90;99.90;;;;;;5072523;28;20017;-73
2022/06/07 09:05:25;;;;;;;1.33;0.50;;;11.90;99.90;;;;;;5072760;28;20381;-72
2022/06/07 09:07:53;;;;;;;0.30;0.30;;;11.80;99.90;;;;;;5073065;28;20009;-73
2022/06/07 09:13:15;;;;;;;0.95;0.40;;;11.70;99.90;;;;;;5072589;28;20087;-74
2022/06/07 09:15:46;;;;;;;2.15;0.50;;;11.60;99.90;;;;;;5072770;28;20048;-74
2022/06/07 09:18:16;;;;;;;0.40;0.10;;;11.50;99.90;;;;;;5071080;28;20405;-72
2022/06/07 09:20:56;;;;;;;1.48;0.40;;;11.50;99.90;;;;;;5072605;28;20044;-73
2022/06/07 09:23:43;;;;;;;0.52;0.30;;;11.40;99.90;;;;;;5071086;28;20476;-72
2022/06/07 09:26:24;;;;;;;0.82;0.40;;;11.40;99.90;;;;;;5072423;28;20024;-72
2022/06/07 09:29:13;;;;;;;0.93;0.40;;;11.40;99.90;;;;;;5071021;28;20060;-73
2022/06/07 09:31:42;;;;;;;0.57;0.30;;;11.30;99.90;;;;;;5070886;28;20052;-72
2022/06/07 09:34:27;;;;;;;1.58;0.30;;;11.30;99.90;;;;;;5072197;28;20477;-72
2022/06/07 09:37:07;;;;;;;1.25;0.28;;;11.20;99.90;;;;;;5072353;28;20024;-73
2022/06/07 09:39:38;;;;;;;1.95;0.43;;;11.20;99.90;;;;;;5071005;28;20024;-72
2022/06/07 09:42:26;;;;;;;0.10;0.10;;;11.20;99.90;;;;;;5072263;28;20028;-74
2022/06/07 09:45:02;;;;;;;0.20;0.20;;;11.20;99.90;;;;;;5070845;28;20021;-74
2022/06/07 09:47:31;;;;;;;0.47;0.20;;;11.10;99.90;;;;;;5072698;28;20017;-75
2022/06/07 09:50:34;;;;;;;1.00;0.32;;;11.10;99.90;;;;;;5070912;28;20070;-75
2022/06/07 09:53:10;;;;;;;0.77;0.20;;;11.10;99.90;;;;;;5072236;28;20103;-75
2022/06/07 09:56:07;;;;;;;0.30;0.20;;;11.10;99.90;;;;;;5072581;28;20020;-74
2022/06/07 09:58:53;;;;;;;1.38;0.30;;;11.00;99.90;;;;;;5075234;28;20396;-75
2022/06/07 10:01:38;;;;;;;0.47;0.25;;;11.00;99.90;;;;;;5074359;28;20024;-73
2022/06/07 10:04:16;;;;;;;0.63;0.20;;;10.90;99.90;;;;;;5076254;28;20032;-73
2022/06/07 10:06:57;;;;;;;0.85;0.30;;;10.90;99.90;;;;;;5075737;28;20025;-72
2022/06/07 10:09:39;;;;;;;0.63;0.28;;;10.80;99.90;;;;;;5075621;28;20345;-75
2022/06/07 10:12:33;;;;;;;0.52;0.30;;;10.70;99.90;;;;;;5076149;28;20025;-74
2022/06/07 10:15:45;;;;;;;0.50;0.50;;;10.60;99.90;;;;;;5074092;28;20021;-73
2022/06/07 10:18:36;;;;;;;1.35;0.30;;;10.60;99.90;;;;;;5072405;28;20056;-72
2022/06/07 10:21:09;;;;;;;0.40;0.22;;;10.50;99.90;;;;;;5075333;28;20017;-73
2022/06/07 10:24:12;;;;;;;1.58;0.30;;;10.50;99.90;;;;;;5073880;28;20427;-74
2022/06/07 10:27:03;;;;;;;1.23;0.40;;;10.50;99.90;;;;;;5075341;28;20361;-74
2022/06/07 10:29:45;;;;;;;1.17;0.40;;;10.40;99.90;;;;;;5073902;28;20029;-75
2022/06/07 10:32:34;;;;;;;1.27;0.30;;;10.40;99.90;;;;;;5075044;28;20514;-74
2022/06/07 10:35:24;;;;;;;0.40;0.20;;;10.40;99.90;;;;;;5073692;28;20162;-72
2022/06/07 10:38:12;;;;;;;0.52;0.32;;;10.30;99.90;;;;;;5075293;28;20025;-73
2022/06/07 10:41:02;;;;;;;0.32;0.20;;;10.30;99.90;;;;;;5073611;28;20021;-72
2022/06/07 10:44:06;;;;;;;0.47;0.40;;;10.30;99.90;;;;;;5074476;28;20040;-71
2022/06/07 10:46:38;;;;;;;0.20;0.20;;;10.20;99.90;;;;;;5070055;28;20088;-72
2022/06/07 10:49:43;;;;;;;0.73;0.40;;;10.20;99.90;;;;;;5074800;28;20031;-72
2022/06/07 10:52:24;;;;;;;1.83;0.50;;;10.10;99.90;;;;;;5073335;28;20028;-71
2022/06/07 10:54:57;;;;;;;0.93;0.30;;;10.10;99.90;;;;;;5074833;28;20048;-72
2022/06/07 10:57:49;;;;;;;0.63;0.20;;;10.00;99.90;;;;;;5074680;28;20025;-72
2022/06/07 11:00:19;;;;;;;0.40;0.30;;;10.00;99.90;;;;;;5073208;28;20112;-72
2022/06/07 11:02:46;;;;;;;1.15;0.40;;;10.00;99.90;;;;;;5074479;28;20028;-74
2022/06/07 11:11:16;;;;;;;0.68;0.38;;;9.90;99.90;;;;;;5074830;28;20027;-72
2022/06/07 11:14:06;;;;;;;0.50;0.30;;;9.80;99.90;;;;;;5072714;28;20032;-73
2022/06/07 11:16:43;;;;;;;2.65;0.50;;;9.80;99.90;;;;;;5074212;28;20538;-72
2022/06/07 11:19:11;;;;;;;1.00;0.30;;;9.80;99.90;;;;;;5074197;28;20091;-72
2022/06/07 11:21:43;;;;;;;0.93;0.50;;;9.80;99.90;;;;;;5072664;28;20016;-72
2022/06/07 11:24:18;;;;;;;1.02;0.28;;;9.80;99.90;;;;;;5074259;28;20025;-72
2022/06/07 11:26:51;;;;;;;1.30;0.60;;;9.80;99.90;;;;;;5073950;28;20103;-72
2022/06/07 11:29:30;;;;;;;1.38;0.30;;;9.80;99.90;;;;;;5073860;28;20029;-72
2022/06/07 11:31:59;;;;;;;0.40;0.30;;;9.80;99.90;;;;;;5072312;28;20522;-73
2022/06/07 11:34:35;;;;;;;0.68;0.40;;;9.80;99.90;;;;;;5073727;28;20032;-73
2022/06/07 11:37:14;;;;;;;0.50;0.30;;;9.80;99.90;;;;;;5073775;28;20021;-72
2022/06/07 11:39:42;;;;;;;1.05;0.50;;;9.80;99.90;;;;;;5072368;28;20028;-72
2022/06/07 11:42:16;;;;;;;1.25;0.30;;;9.80;99.90;;;;;;5073725;28;20091;-72
2022/06/07 11:44:45;;;;;;;0.45;0.30;;;9.60;99.90;;;;;;5073696;28;20028;-73
2022/06/07 11:47:14;;;;;;;0.63;0.30;;;9.60;99.90;;;;;;5073640;28;20499;-73
2022/06/07 11:49:48;;;;;;;0.30;0.30;;;9.60;99.90;;;;;;5072188;28;20031;-71
2022/06/07 11:52:17;;;;;;;0.63;0.32;;;9.40;99.90;;;;;;5073670;28;20016;-71
2022/06/07 11:54:53;;;;;;;0.60;0.50;;;9.50;99.90;;;;;;5072049;28;20028;-72
2022/06/07 11:57:32;;;;;;;1.02;0.40;;;9.50;99.90;;;;;;5072044;28;20020;-73
2022/06/07 12:00:23;;;;;;;1.70;0.30;;;9.60;99.90;;;;;;5073467;28;20099;-73
2022/06/07 12:03:05;;;;;;;0.45;0.20;;;9.50;99.90;;;;;;5072017;28;20024;-72
2022/06/07 12:05:57;;;;;;;0.43;0.30;;;9.50;99.90;;;;;;5071857;28;20420;-73
2022/06/07 12:08:53;;;;;;;1.35;0.30;;;9.50;99.90;;;;;;5071998;28;20546;-71
2022/06/07 12:11:28;;;;;;;0.45;0.35;;;9.40;99.90;;;;;;5072249;28;20036;-72
2022/06/07 12:14:11;;;;;;;0.55;0.40;;;9.50;99.90;;;;;;5071719;28;20028;-72
2022/06/07 12:16:42;;;;;;;0.50;0.30;;;9.50;99.90;;;;;;5071825;28;20559;-72
2022/06/07 12:19:30;;;;;;;0.68;0.22;;;9.50;99.90;;;;;;5071357;28;20017;-72
2022/06/07 12:22:07;;;;;;;0.45;0.30;;;9.50;99.90;;;;;;5073094;28;20025;-72
2022/06/07 12:25:12;;;;;;;0.57;0.40;;;9.50;99.90;;;;;;5073151;28;20028;-72
2022/06/07 12:27:54;;;;;;;0.35;0.22;;;9.50;99.90;;;;;;5073063;28;20024;-72
2022/06/07 12:30:30;;;;;;;0.60;0.40;;;9.40;99.90;;;;;;5071634;28;20115;-72
2022/06/07 12:33:24;;;;;;;0.55;0.20;;;9.30;99.90;;;;;;5071395;28;20044;-72
2022/06/07 12:36:19;;;;;;;0.82;0.50;;;9.30;99.90;;;;;;5072979;28;20028;-72
2022/06/07 12:38:49;;;;;;;0.57;0.30;;;9.30;99.90;;;;;;5072831;28;20476;-72
2022/06/07 12:41:21;;;;;;;0.88;0.40;;;9.20;99.90;;;;;;5071543;28;20079;-71
2022/06/07 12:43:51;;;;;;;1.48;0.25;;;9.20;99.90;;;;;;5072774;28;20024;-73
2022/06/07 12:46:33;;;;;;;0.52;0.30;;;9.20;99.90;;;;;;5071499;28;20043;-72
2022/06/07 12:49:00;;;;;;;0.50;0.28;;;9.20;99.90;;;;;;5072737;28;20032;-72
2022/06/07 12:51:37;;;;;;;1.33;0.30;;;9.30;99.90;;;;;;5071467;28;20021;-74
2022/06/07 12:54:22;;;;;;;0.60;0.40;;;9.30;99.90;;;;;;5071350;28;20028;-73
2022/06/07 12:56:53;;;;;;;0.75;0.40;;;9.40;99.90;;;;;;5072754;28;20474;-74
2022/06/07 12:59:33;;;;;;;0.68;0.40;;;9.40;99.90;;;;;;5072761;28;20153;-72
2022/06/07 13:02:02;;;;;;;0.63;0.30;;;9.40;99.90;;;;;;5071406;28;20028;-73
2022/06/07 13:04:45;;;;;;;1.58;0.40;;;9.30;99.90;;;;;;5072897;28;20020;-72
2022/06/07 13:07:22;;;;;;;0.77;0.50;;;9.30;99.90;;;;;;5072588;28;20107;-73
2022/06/07 13:10:01;;;;;;;0.55;0.55;;;9.30;99.90;;;;;;5073048;28;20048;-73
2022/06/07 13:12:35;;;;;;;1.15;0.38;;;9.30;99.90;;;;;;5071225;28;20103;-73
2022/06/07 13:15:13;;;;;;;1.25;0.40;;;9.40;99.90;;;;;;5071236;28;20025;-74
2022/06/07 13:17:51;;;;;;;1.05;0.47;;;9.30;99.90;;;;;;5072571;28;20020;-73
2022/06/07 13:20:37;;;;;;;0.90;0.50;;;9.30;99.90;;;;;;5071139;28;20062;-73
2022/06/07 13:23:28;;;;;;;0.82;0.50;;;9.30;99.90;;;;;;5071088;28;20035;-73
2022/06/07 13:26:29;;;;;;;0.60;0.25;;;9.20;99.90;;;;;;5072549;28;20027;-75
2022/06/07 13:29:09;;;;;;;;;;;9.30;99.90;;;;;;5059182;28;20094;-73
2022/06/07 13:31:53;;;;;;;2.30;0.30;;;9.30;99.90;;;;;;5073407;28;19912;-74
2022/06/07 13:34:31;;;;;;;0.65;0.30;;;9.30;99.90;;;;;;5076394;28;20037;-75
2022/06/07 13:37:23;;;;;;;0.50;0.30;;;9.30;99.90;;;;;;5076446;28;20013;-74
2022/06/07 13:39:59;;;;;;;0.38;0.20;;;9.30;99.90;;;;;;5074830;28;20035;-75
2022/06/07 13:42:35;;;;;;;0.25;0.25;;;9.30;99.90;;;;;;5076091;28;20013;-74
2022/06/07 13:45:24;;;;;;;0.50;0.30;;;9.30;99.90;;;;;;5074765;28;20039;-73
2022/06/07 13:48:17;;;;;;;1.25;0.40;;;9.30;99.90;;;;;;5076010;28;20021;-73